createdAt,value
2016-12-04T00:00:56.183Z,21.34
2016-12-04T00:01:56.209Z,21.38
2016-12-04T00:02:55.932Z,21.4
2016-12-04T00:03:56.269Z,21.37
2016-12-04T00:04:56.595Z,21.42
2016-12-04T00:05:56.018Z,21.47
2016-12-04T00:06:56.042Z,21.35
2016-12-04T00:07:56.067Z,21.37
2016-12-04T00:08:56.700Z,21.43
2016-12-04T00:09:56.422Z,21.44
2016-12-04T00:10:56.457Z,21.43
2016-12-04T00:11:56.478Z,21.46
2016-12-04T00:12:56.204Z,21.47
2016-12-04T00:13:56.848Z,21.46
2016-12-04T00:14:56.564Z,21.43
2016-12-04T00:15:56.897Z,21.43
2016-12-04T00:16:56.613Z,21.4
2016-12-04T00:17:56.652Z,21.42
2016-12-04T00:18:56.670Z,21.4
2016-12-04T00:19:56.719Z,21.43
2016-12-04T00:20:56.728Z,21.44
2016-12-04T00:21:56.761Z,21.38
2016-12-04T00:22:56.789Z,21.43
2016-12-04T00:23:57.114Z,21.43
2016-12-04T00:24:57.142Z,21.4
2016-12-04T00:25:56.868Z,21.38
2016-12-04T00:26:56.892Z,21.37
2016-12-04T00:27:57.224Z,21.37
2016-12-04T00:28:56.648Z,21.4
2016-12-04T00:29:56.666Z,21.38
2016-12-04T00:30:56.690Z,21.37
2016-12-04T00:31:57.337Z,21.37
2016-12-04T00:32:56.764Z,21.35
2016-12-04T00:33:57.372Z,21.37
2016-12-04T00:34:57.414Z,21.34
2016-12-04T00:35:57.462Z,21.38
2016-12-04T00:36:57.163Z,21.46
2016-12-04T00:37:57.515Z,21.34
2016-12-04T00:38:56.912Z,21.34
2016-12-04T00:39:57.252Z,21.42
2016-12-04T00:40:57.585Z,21.37
2016-12-04T00:41:57.307Z,21.35
2016-12-04T00:42:57.636Z,21.38
2016-12-04T00:43:57.669Z,21.37
2016-12-04T00:44:57.383Z,21.37
2016-12-04T00:45:57.410Z,21.38
2016-12-04T00:46:57.144Z,21.38
2016-12-04T00:47:57.472Z,21.32
2016-12-04T00:48:57.501Z,21.4
2016-12-04T00:49:57.217Z,21.27
2016-12-04T00:50:57.550Z,21.38
2016-12-04T00:51:57.894Z,21.43
2016-12-04T00:52:57.608Z,21.31
2016-12-04T00:53:57.973Z,21.34
2016-12-04T00:54:57.966Z,21.43
2016-12-04T00:55:57.708Z,21.43
2016-12-04T00:56:57.713Z,21.32
2016-12-04T00:57:58.042Z,21.32
2016-12-04T00:58:58.077Z,21.29
2016-12-04T00:59:57.817Z,21.29
2016-12-04T01:00:58.123Z,21.35
2016-12-04T01:01:57.859Z,21.35
2016-12-04T01:02:57.881Z,21.19
2016-12-04T01:03:57.912Z,21.31
2016-12-04T01:04:57.949Z,21.25
2016-12-04T01:05:57.667Z,21.27
2016-12-04T01:06:57.685Z,21.34
2016-12-04T01:07:58.332Z,21.28
2016-12-04T01:08:58.358Z,21.29
2016-12-04T01:09:58.390Z,21.24
2016-12-04T01:10:58.102Z,21.25
2016-12-04T01:11:57.839Z,21.29
2016-12-04T01:12:58.164Z,21.27
2016-12-04T01:13:58.192Z,21.19
2016-12-04T01:14:58.213Z,21.22
2016-12-04T01:15:58.243Z,21.14
2016-12-04T01:16:57.961Z,21.22
2016-12-04T01:17:58.601Z,21.14
2016-12-04T01:18:58.020Z,21.19
2016-12-04T01:19:58.358Z,21.19
2016-12-04T01:20:58.073Z,21.17
2016-12-04T01:21:58.414Z,21.16
2016-12-04T01:22:58.430Z,21.13
2016-12-04T01:23:58.156Z,21.19
2016-12-04T01:24:58.180Z,21.1
2016-12-04T01:25:58.825Z,21.1
2016-12-04T01:26:58.842Z,21.1
2016-12-04T01:27:58.608Z,21.1
2016-12-04T01:28:58.601Z,21.14
2016-12-04T01:29:58.646Z,21.19
2016-12-04T01:30:58.647Z,21.07
2016-12-04T01:31:58.685Z,21.07
2016-12-04T01:32:58.399Z,21.1
2016-12-04T01:33:58.783Z,21.06
2016-12-04T01:34:58.764Z,21.13
2016-12-04T01:35:58.784Z,21.1
2016-12-04T01:36:58.812Z,21.16
2016-12-04T01:37:58.842Z,21.13
2016-12-04T01:38:58.870Z,21.13
2016-12-04T01:39:58.895Z,21.13
2016-12-04T01:40:59.229Z,21.21
2016-12-04T01:41:58.640Z,21.16
2016-12-04T01:42:58.673Z,21.16
2016-12-04T01:43:59.022Z,21.13
2016-12-04T01:44:59.335Z,21.16
2016-12-04T01:45:58.772Z,21.1
2016-12-04T01:46:59.392Z,21.17
2016-12-04T01:47:59.116Z,21.09
2016-12-04T01:48:59.447Z,21.16
2016-12-04T01:49:59.483Z,21.09
2016-12-04T01:50:59.197Z,21.16
2016-12-04T01:51:59.244Z,21.17
2016-12-04T01:52:59.253Z,21.12
2016-12-04T01:53:59.280Z,21.13
2016-12-04T01:54:59.614Z,21.13
2016-12-04T01:55:59.343Z,21.04
2016-12-04T01:56:59.664Z,21.07
2016-12-04T01:57:59.402Z,21.1
2016-12-04T01:58:59.134Z,21.04
2016-12-04T01:59:59.762Z,21.03
2016-12-04T02:00:59.167Z,21.06
2016-12-04T02:01:59.490Z,21.07
2016-12-04T02:02:59.216Z,21.06
2016-12-04T02:03:59.546Z,20.95
2016-12-04T02:04:59.882Z,21.03
2016-12-04T02:05:59.911Z,21.06
2016-12-04T02:06:59.941Z,21.07
2016-12-04T02:07:59.361Z,20.97
2016-12-04T02:08:59.697Z,20.91
2016-12-04T02:09:59.721Z,21.07
2016-12-04T02:10:59.747Z,20.97
2016-12-04T02:12:00.083Z,20.97
2016-12-04T02:12:59.797Z,20.97
2016-12-04T02:13:59.533Z,21.01
2016-12-04T02:14:59.858Z,20.94
2016-12-04T02:15:59.872Z,20.98
2016-12-04T02:16:59.912Z,20.97
2016-12-04T02:18:00.256Z,21.04
2016-12-04T02:18:59.961Z,20.87
2016-12-04T02:20:00.302Z,21.03
2016-12-04T02:21:00.314Z,20.88
2016-12-04T02:22:00.351Z,20.97
2016-12-04T02:23:00.068Z,20.95
2016-12-04T02:24:00.098Z,20.94
2016-12-04T02:25:00.130Z,20.95
2016-12-04T02:26:00.158Z,20.87
2016-12-04T02:27:00.188Z,20.87
2016-12-04T02:27:59.902Z,20.88
2016-12-04T02:29:00.231Z,20.87
2016-12-04T02:30:00.274Z,20.89
2016-12-04T02:31:00.294Z,20.89
2016-12-04T02:32:00.318Z,20.76
2016-12-04T02:33:00.651Z,20.74
2016-12-04T02:34:00.368Z,20.82
2016-12-04T02:35:00.093Z,20.7
2016-12-04T02:36:00.747Z,20.73
2016-12-04T02:37:00.449Z,20.77
2016-12-04T02:38:00.485Z,20.79
2016-12-04T02:39:00.511Z,20.72
2016-12-04T02:40:00.841Z,20.76
2016-12-04T02:41:00.595Z,20.69
2016-12-04T02:42:00.594Z,20.72
2016-12-04T02:43:00.618Z,20.62
2016-12-04T02:44:00.643Z,20.69
2016-12-04T02:45:00.663Z,20.66
2016-12-04T02:46:01.013Z,20.69
2016-12-04T02:47:00.729Z,20.67
2016-12-04T02:48:01.057Z,20.66
2016-12-04T02:49:00.778Z,20.66
2016-12-04T02:50:01.102Z,20.58
2016-12-04T02:51:00.828Z,20.58
2016-12-04T02:52:01.169Z,20.64
2016-12-04T02:53:00.881Z,20.62
2016-12-04T02:54:00.921Z,20.59
2016-12-04T02:55:00.951Z,20.64
2016-12-04T02:56:00.663Z,20.61
2016-12-04T02:57:00.997Z,20.55
2016-12-04T02:58:01.341Z,20.55
2016-12-04T02:59:01.057Z,20.58
2016-12-04T03:00:01.398Z,20.61
2016-12-04T03:01:00.799Z,20.62
2016-12-04T03:02:00.822Z,20.51
2016-12-04T03:03:01.162Z,20.55
2016-12-04T03:04:00.879Z,20.51
2016-12-04T03:05:01.209Z,20.42
2016-12-04T03:06:01.241Z,20.43
2016-12-04T03:07:01.562Z,20.52
2016-12-04T03:08:01.305Z,20.52
2016-12-04T03:09:01.323Z,20.43
2016-12-04T03:10:01.348Z,20.5
2016-12-04T03:11:01.661Z,20.43
2016-12-04T03:12:01.397Z,20.41
2016-12-04T03:13:01.126Z,20.51
2016-12-04T03:14:01.761Z,20.38
2016-12-04T03:15:01.787Z,20.41
2016-12-04T03:16:01.224Z,20.41
2016-12-04T03:17:01.537Z,20.38
2016-12-04T03:18:01.571Z,20.41
2016-12-04T03:19:01.574Z,20.35
2016-12-04T03:20:01.302Z,20.41
2016-12-04T03:21:01.339Z,20.28
2016-12-04T03:22:01.680Z,20.36
2016-12-04T03:23:01.701Z,20.41
2016-12-04T03:24:02.037Z,20.39
2016-12-04T03:25:01.754Z,20.36
2016-12-04T03:26:02.099Z,20.33
2016-12-04T03:27:02.114Z,20.32
2016-12-04T03:28:02.140Z,20.26
2016-12-04T03:29:01.849Z,20.31
2016-12-04T03:30:01.586Z,20.29
2016-12-04T03:31:01.598Z,20.31
2016-12-04T03:32:02.243Z,20.29
2016-12-04T03:33:02.267Z,20.32
2016-12-04T03:34:02.296Z,20.24
2016-12-04T03:35:02.025Z,20.24
2016-12-04T03:36:02.051Z,20.26
2016-12-04T03:37:02.103Z,20.23
2016-12-04T03:38:02.110Z,20.26
2016-12-04T03:39:02.131Z,20.23
2016-12-04T03:40:01.852Z,20.21
2016-12-04T03:41:02.180Z,20.21
2016-12-04T03:42:02.517Z,20.2
2016-12-04T03:43:02.550Z,20.16
2016-12-04T03:44:02.586Z,20.11
2016-12-04T03:45:02.283Z,20.17
2016-12-04T03:46:02.331Z,20.2
2016-12-04T03:47:02.349Z,20.21
2016-12-04T03:48:02.369Z,20.28
2016-12-04T03:49:02.094Z,20.11
2016-12-04T03:50:02.134Z,20.17
2016-12-04T03:51:02.459Z,20.16
2016-12-04T03:52:02.482Z,20.14
2016-12-04T03:53:02.805Z,20.16
2016-12-04T03:54:02.541Z,20.18
2016-12-04T03:55:02.558Z,20.14
2016-12-04T03:56:02.279Z,20.13
2016-12-04T03:57:02.607Z,20.16
2016-12-04T03:58:02.652Z,20.18
2016-12-04T03:59:02.660Z,20.08
2016-12-04T04:00:02.689Z,20.13
2016-12-04T04:01:03.028Z,20.14
2016-12-04T04:02:02.430Z,20.03
2016-12-04T04:03:02.783Z,20.03
2016-12-04T04:04:02.796Z,20.02
2016-12-04T04:05:02.829Z,20.08
2016-12-04T04:06:02.545Z,20.03
2016-12-04T04:07:02.870Z,20.06
2016-12-04T04:08:02.923Z,20.02
2016-12-04T04:09:03.234Z,20.01
2016-12-04T04:10:03.268Z,20.05
2016-12-04T04:11:02.987Z,20.06
2016-12-04T04:12:03.023Z,20.08
2016-12-04T04:13:02.725Z,20.01
2016-12-04T04:14:03.383Z,20.03
2016-12-04T04:15:03.080Z,19.96
2016-12-04T04:16:03.129Z,20.02
2016-12-04T04:17:03.150Z,20.06
2016-12-04T04:18:03.488Z,19.95
2016-12-04T04:19:03.195Z,19.96
2016-12-04T04:20:03.241Z,19.99
2016-12-04T04:21:03.253Z,19.94
2016-12-04T04:22:03.285Z,19.95
2016-12-04T04:23:03.307Z,20.01
2016-12-04T04:24:03.035Z,19.94
2016-12-04T04:25:03.055Z,19.98
2016-12-04T04:26:03.693Z,19.95
2016-12-04T04:27:03.414Z,19.95
2016-12-04T04:28:03.458Z,19.96
2016-12-04T04:29:03.459Z,19.94
2016-12-04T04:30:03.804Z,19.94
2016-12-04T04:31:03.819Z,19.95
2016-12-04T04:32:03.549Z,19.86
2016-12-04T04:33:03.568Z,19.96
2016-12-04T04:34:03.301Z,20.01
2016-12-04T04:35:03.923Z,19.94
2016-12-04T04:36:03.360Z,19.94
2016-12-04T04:37:03.984Z,19.88
2016-12-04T04:38:03.721Z,19.98
2016-12-04T04:39:03.423Z,20.01
2016-12-04T04:40:03.462Z,19.91
2016-12-04T04:41:03.784Z,19.88
2016-12-04T04:42:03.823Z,19.94
2016-12-04T04:43:03.536Z,19.92
2016-12-04T04:44:03.866Z,19.84
2016-12-04T04:45:04.207Z,19.87
2016-12-04T04:46:03.936Z,19.87
2016-12-04T04:47:04.289Z,19.83
2016-12-04T04:48:04.285Z,19.83
2016-12-04T04:49:04.002Z,19.81
2016-12-04T04:50:04.326Z,19.86
2016-12-04T04:51:03.751Z,19.81
2016-12-04T04:52:04.392Z,19.83
2016-12-04T04:53:04.107Z,19.81
2016-12-04T04:54:04.134Z,19.84
2016-12-04T04:55:04.162Z,19.87
2016-12-04T04:56:04.519Z,19.87
2016-12-04T04:57:03.912Z,19.84
2016-12-04T04:58:03.930Z,19.84
2016-12-04T04:59:04.570Z,19.81
2016-12-04T05:00:04.018Z,19.76
2016-12-04T05:01:04.627Z,19.81
2016-12-04T05:02:04.652Z,19.76
2016-12-04T05:03:04.085Z,19.8
2016-12-04T05:04:04.406Z,19.77
2016-12-04T05:05:04.437Z,19.73
2016-12-04T05:06:04.775Z,19.78
2016-12-04T05:07:04.481Z,19.77
2016-12-04T05:08:04.508Z,19.77
2016-12-04T05:09:04.221Z,19.71
2016-12-04T05:10:04.862Z,19.76
2016-12-04T05:11:04.582Z,19.68
2016-12-04T05:12:04.916Z,19.74
2016-12-04T05:13:04.648Z,19.74
2016-12-04T05:14:04.366Z,19.77
2016-12-04T05:15:05.010Z,19.77
2016-12-04T05:16:04.727Z,19.76
2016-12-04T05:17:04.751Z,19.77
2016-12-04T05:18:05.077Z,19.77
2016-12-04T05:19:04.805Z,19.68
2016-12-04T05:20:04.822Z,19.66
2016-12-04T05:21:05.158Z,19.71
2016-12-04T05:22:04.891Z,19.69
2016-12-04T05:23:05.203Z,19.71
2016-12-04T05:24:05.237Z,19.77
2016-12-04T05:25:04.962Z,19.68
2016-12-04T05:26:04.987Z,19.62
2016-12-04T05:27:05.312Z,19.76
2016-12-04T05:28:05.052Z,19.69
2016-12-04T05:29:05.068Z,19.71
2016-12-04T05:30:05.102Z,19.74
2016-12-04T05:31:05.130Z,19.8
2016-12-04T05:32:05.148Z,19.8
2016-12-04T05:33:05.175Z,19.77
2016-12-04T05:34:05.496Z,19.78
2016-12-04T05:35:05.224Z,19.87
2016-12-04T05:36:05.262Z,19.83
2016-12-04T05:37:05.574Z,19.8
2016-12-04T05:38:05.308Z,19.88
2016-12-04T05:39:05.328Z,19.88
2016-12-04T05:40:05.662Z,19.95
2016-12-04T05:41:05.691Z,19.94
2016-12-04T05:42:05.725Z,19.96
2016-12-04T05:43:05.422Z,19.92
2016-12-04T05:44:05.475Z,19.96
2016-12-04T05:45:05.489Z,19.98
2016-12-04T05:46:05.232Z,19.95
2016-12-04T05:47:05.851Z,19.92
2016-12-04T05:48:05.909Z,20.1
2016-12-04T05:49:05.898Z,20.02
2016-12-04T05:50:05.320Z,20.03
2016-12-04T05:51:05.659Z,20.1
2016-12-04T05:52:05.989Z,20.06
2016-12-04T05:53:05.998Z,20.03
2016-12-04T05:54:05.726Z,20.05
2016-12-04T05:55:05.763Z,20.14
2016-12-04T05:56:06.096Z,20.18
2016-12-04T05:57:05.808Z,20.16
2016-12-04T05:58:05.841Z,20.14
2016-12-04T05:59:05.870Z,20.18
2016-12-04T06:00:05.894Z,20.26
2016-12-04T06:01:05.915Z,20.2
2016-12-04T06:02:05.951Z,20.2
2016-12-04T06:03:05.665Z,20.24
2016-12-04T06:04:05.701Z,20.29
2016-12-04T06:05:06.025Z,20.31
2016-12-04T06:06:06.368Z,20.31
2016-12-04T06:07:06.381Z,20.35
2016-12-04T06:08:06.114Z,20.31
2016-12-04T06:09:06.133Z,20.35
2016-12-04T06:10:05.873Z,20.41
2016-12-04T06:11:05.878Z,20.36
2016-12-04T06:12:05.914Z,20.38
2016-12-04T06:13:05.926Z,20.39
2016-12-04T06:14:06.564Z,20.41
2016-12-04T06:15:05.993Z,20.39
2016-12-04T06:16:06.319Z,20.47
2016-12-04T06:17:06.348Z,20.47
2016-12-04T06:18:06.691Z,20.43
2016-12-04T06:19:06.089Z,20.51
2016-12-04T06:20:06.420Z,20.43
2016-12-04T06:21:06.453Z,20.52
2016-12-04T06:22:06.182Z,20.51
2016-12-04T06:23:06.222Z,20.47
2016-12-04T06:24:06.829Z,20.48
2016-12-04T06:25:06.560Z,20.42
2016-12-04T06:26:06.573Z,20.51
2016-12-04T06:27:06.302Z,20.57
2016-12-04T06:28:06.627Z,20.58
2016-12-04T06:29:06.354Z,20.59
2016-12-04T06:30:07.000Z,20.61
2016-12-04T06:31:06.706Z,20.57
2016-12-04T06:32:06.734Z,20.59
2016-12-04T06:33:07.074Z,20.67
2016-12-04T06:34:06.493Z,20.62
2016-12-04T06:35:07.126Z,20.64
2016-12-04T06:36:06.842Z,20.62
2016-12-04T06:37:06.890Z,20.64
2016-12-04T06:38:06.894Z,20.61
2016-12-04T06:39:06.633Z,20.61
2016-12-04T06:40:06.960Z,20.7
2016-12-04T06:41:07.009Z,20.66
2016-12-04T06:42:07.013Z,20.7
2016-12-04T06:43:07.331Z,20.58
2016-12-04T06:44:07.055Z,20.64
2016-12-04T06:45:07.092Z,20.7
2016-12-04T06:46:07.427Z,20.59
2016-12-04T06:47:07.445Z,20.62
2016-12-04T06:48:06.891Z,20.59
2016-12-04T06:49:06.895Z,20.59
2016-12-04T06:50:07.536Z,20.64
2016-12-04T06:51:07.240Z,20.64
2016-12-04T06:52:06.981Z,20.7
2016-12-04T06:53:07.000Z,20.66
2016-12-04T06:54:07.339Z,20.64
2016-12-04T06:55:07.363Z,20.61
2016-12-04T06:56:07.382Z,20.74
2016-12-04T06:57:07.109Z,20.66
2016-12-04T06:58:07.145Z,20.67
2016-12-04T06:59:07.464Z,20.72
2016-12-04T07:00:07.812Z,20.73
2016-12-04T07:01:07.812Z,20.64
2016-12-04T07:02:07.844Z,20.72
2016-12-04T07:03:07.269Z,20.61
2016-12-04T07:04:07.314Z,20.66
2016-12-04T07:05:07.627Z,20.66
2016-12-04T07:06:07.664Z,20.61
2016-12-04T07:07:07.985Z,20.74
2016-12-04T07:08:07.753Z,20.74
2016-12-04T07:09:07.432Z,20.62
2016-12-04T07:10:07.764Z,20.7
2016-12-04T07:11:07.775Z,20.7
2016-12-04T07:12:07.512Z,20.73
2016-12-04T07:13:07.532Z,20.73
2016-12-04T07:14:07.884Z,20.67
2016-12-04T07:15:07.592Z,20.74
2016-12-04T07:16:07.955Z,20.79
2016-12-04T07:17:07.953Z,20.7
2016-12-04T07:18:07.977Z,20.7
2016-12-04T07:19:07.702Z,20.74
2016-12-04T07:20:08.062Z,20.72
2016-12-04T07:21:08.058Z,20.8
2016-12-04T07:22:08.084Z,20.79
2016-12-04T07:23:08.415Z,20.77
2016-12-04T07:24:07.840Z,20.8
2016-12-04T07:25:07.866Z,20.67
2016-12-04T07:26:08.205Z,20.73
2016-12-04T07:27:08.514Z,20.85
2016-12-04T07:28:08.250Z,20.79
2016-12-04T07:29:08.583Z,20.76
2016-12-04T07:30:08.311Z,20.76
2016-12-04T07:31:08.646Z,20.84
2016-12-04T07:32:08.354Z,20.76
2016-12-04T07:33:08.082Z,20.85
2016-12-04T07:34:08.711Z,20.76
2016-12-04T07:35:08.132Z,20.79
2016-12-04T07:36:08.776Z,20.82
2016-12-04T07:37:08.488Z,20.73
2016-12-04T07:38:08.813Z,20.76
2016-12-04T07:39:08.548Z,20.73
2016-12-04T07:40:08.573Z,20.82
2016-12-04T07:41:08.593Z,20.77
2016-12-04T07:42:08.632Z,20.76
2016-12-04T07:43:08.648Z,20.76
2016-12-04T07:44:08.692Z,20.77
2016-12-04T07:45:08.393Z,20.64
2016-12-04T07:46:08.725Z,20.77
2016-12-04T07:47:08.767Z,20.79
2016-12-04T07:48:08.784Z,20.69
2016-12-04T07:49:09.116Z,20.67
2016-12-04T07:50:09.141Z,20.74
2016-12-04T07:51:08.557Z,20.8
2016-12-04T07:52:08.894Z,20.7
2016-12-04T07:53:09.219Z,20.7
2016-12-04T07:54:08.940Z,20.7
2016-12-04T07:55:08.664Z,20.64
2016-12-04T07:56:08.998Z,20.74
2016-12-04T07:57:09.023Z,20.62
2016-12-04T07:58:09.371Z,20.72
2016-12-04T07:59:09.380Z,20.58
2016-12-04T08:00:09.113Z,20.64
2016-12-04T08:01:08.838Z,20.55
2016-12-04T08:02:09.450Z,20.55
2016-12-04T08:03:08.887Z,20.67
2016-12-04T08:04:09.207Z,20.67
2016-12-04T08:05:08.940Z,20.62
2016-12-04T08:06:09.269Z,20.73
2016-12-04T08:07:09.304Z,20.64
2016-12-04T08:08:09.639Z,20.64
2016-12-04T08:09:09.350Z,20.58
2016-12-04T08:10:09.065Z,20.64
2016-12-04T08:11:09.093Z,20.67
2016-12-04T08:12:09.450Z,20.66
2016-12-04T08:13:09.443Z,20.59
2016-12-04T08:14:09.496Z,20.55
2016-12-04T08:15:09.520Z,20.59
2016-12-04T08:16:09.240Z,20.59
2016-12-04T08:17:09.868Z,20.57
2016-12-04T08:18:09.282Z,20.55
2016-12-04T08:19:09.644Z,20.55
2016-12-04T08:20:09.640Z,20.55
2016-12-04T08:21:09.677Z,20.52
2016-12-04T08:22:09.693Z,20.64
2016-12-04T08:23:09.730Z,20.58
2016-12-04T08:24:09.760Z,20.66
2016-12-04T08:25:09.480Z,20.64
2016-12-04T08:26:09.525Z,20.59
2016-12-04T08:27:10.141Z,20.61
2016-12-04T08:28:09.550Z,20.62
2016-12-04T08:29:10.208Z,20.69
2016-12-04T08:30:09.920Z,20.62
2016-12-04T08:31:09.636Z,20.62
2016-12-04T08:32:09.668Z,20.67
2016-12-04T08:33:09.694Z,20.66
2016-12-04T08:34:10.335Z,20.67
2016-12-04T08:35:10.352Z,20.58
2016-12-04T08:36:10.073Z,20.67
2016-12-04T08:37:10.097Z,20.76
2016-12-04T08:38:09.834Z,20.7
2016-12-04T08:39:09.854Z,20.76
2016-12-04T08:40:10.179Z,20.77
2016-12-04T08:41:10.213Z,20.8
2016-12-04T08:42:10.252Z,20.74
2016-12-04T08:43:10.270Z,20.67
2016-12-04T08:44:10.319Z,20.73
2016-12-04T08:45:10.320Z,20.82
2016-12-04T08:46:10.670Z,20.79
2016-12-04T08:47:10.374Z,20.87
2016-12-04T08:48:10.713Z,20.84
2016-12-04T08:49:10.439Z,20.84
2016-12-04T08:50:10.160Z,20.79
2016-12-04T08:51:10.493Z,20.87
2016-12-04T08:52:10.216Z,20.74
2016-12-04T08:53:10.546Z,20.77
2016-12-04T08:54:10.570Z,20.79
2016-12-04T08:55:10.596Z,20.76
2016-12-04T08:56:10.309Z,20.74
2016-12-04T08:57:10.954Z,20.76
2016-12-04T08:58:10.367Z,20.74
2016-12-04T08:59:10.711Z,20.74
2016-12-04T09:00:10.432Z,20.7
2016-12-04T09:01:11.073Z,20.7
2016-12-04T09:02:10.486Z,20.66
2016-12-04T09:03:10.516Z,20.64
2016-12-04T09:04:11.148Z,20.62
2016-12-04T09:05:10.863Z,20.62
2016-12-04T09:06:10.588Z,20.64
2016-12-04T09:07:10.617Z,20.58
2016-12-04T09:08:10.944Z,20.67
2016-12-04T09:09:11.314Z,20.64
2016-12-04T09:10:11.318Z,20.57
2016-12-04T09:11:11.330Z,20.54
2016-12-04T09:12:10.775Z,20.61
2016-12-04T09:13:11.080Z,20.55
2016-12-04T09:14:11.134Z,20.59
2016-12-04T09:15:11.138Z,20.55
2016-12-04T09:16:11.463Z,20.52
2016-12-04T09:17:11.219Z,20.55
2016-12-04T09:18:11.217Z,20.51
2016-12-04T09:19:11.549Z,20.54
2016-12-04T09:20:11.577Z,20.52
2016-12-04T09:21:11.594Z,20.48
2016-12-04T09:22:11.323Z,20.47
2016-12-04T09:23:11.661Z,20.43
2016-12-04T09:24:11.380Z,20.48
2016-12-04T09:25:11.402Z,20.38
2016-12-04T09:26:11.432Z,20.5
2016-12-04T09:27:11.762Z,20.55
2016-12-04T09:28:11.187Z,20.51
2016-12-04T09:29:11.814Z,20.5
2016-12-04T09:30:11.242Z,20.54
2016-12-04T09:31:11.569Z,20.51
2016-12-04T09:32:11.294Z,20.51
2016-12-04T09:33:11.619Z,20.48
2016-12-04T09:34:11.664Z,20.52
2016-12-04T09:35:11.377Z,20.51
2016-12-04T09:36:11.695Z,20.55
2016-12-04T09:37:11.730Z,20.52
2016-12-04T09:38:11.766Z,20.5
2016-12-04T09:39:11.472Z,20.51
2016-12-04T09:40:12.112Z,20.54
2016-12-04T09:41:11.845Z,20.48
2016-12-04T09:42:11.869Z,20.55
2016-12-04T09:43:11.587Z,20.5
2016-12-04T09:44:11.917Z,20.54
2016-12-04T09:45:11.940Z,20.62
2016-12-04T09:46:11.985Z,20.58
2016-12-04T09:47:12.302Z,20.58
2016-12-04T09:48:12.027Z,20.61
2016-12-04T09:49:12.359Z,20.66
2016-12-04T09:50:12.096Z,20.57
2016-12-04T09:51:11.805Z,20.55
2016-12-04T09:52:12.442Z,20.64
2016-12-04T09:53:12.162Z,20.58
2016-12-04T09:54:11.886Z,20.58
2016-12-04T09:55:12.207Z,20.66
2016-12-04T09:56:12.256Z,20.61
2016-12-04T09:57:12.285Z,20.61
2016-12-04T09:58:12.619Z,20.64
2016-12-04T09:59:12.310Z,20.64
2016-12-04T10:00:12.651Z,20.62
2016-12-04T10:01:12.375Z,20.59
2016-12-04T10:02:12.392Z,20.7
2016-12-04T10:03:12.429Z,20.72
2016-12-04T10:04:12.452Z,20.61
2016-12-04T10:05:12.816Z,20.58
2016-12-04T10:06:12.506Z,20.62
2016-12-04T10:07:12.532Z,20.76
2016-12-04T10:08:12.565Z,20.59
2016-12-04T10:09:12.889Z,20.74
2016-12-04T10:10:12.630Z,20.69
2016-12-04T10:11:12.343Z,20.77
2016-12-04T10:12:12.669Z,20.73
2016-12-04T10:13:12.705Z,20.69
2016-12-04T10:14:12.423Z,20.87
2016-12-04T10:15:12.450Z,20.85
2016-12-04T10:16:12.788Z,20.85
2016-12-04T10:17:13.116Z,20.88
2016-12-04T10:18:12.552Z,20.89
2016-12-04T10:19:13.169Z,20.82
2016-12-04T10:20:13.199Z,20.98
2016-12-04T10:21:12.920Z,20.98
2016-12-04T10:22:12.948Z,20.91
2016-12-04T10:23:13.274Z,20.98
2016-12-04T10:24:12.697Z,20.98
2016-12-04T10:25:12.725Z,20.95
2016-12-04T10:26:12.742Z,20.99
2016-12-04T10:27:13.075Z,21.06
2016-12-04T10:28:12.800Z,21.01
2016-12-04T10:29:13.128Z,21.07
2016-12-04T10:30:13.164Z,21.09
2016-12-04T10:31:13.180Z,21.13
2016-12-04T10:32:12.920Z,21.1
2016-12-04T10:33:13.244Z,21.22
2016-12-04T10:34:13.289Z,21.12
2016-12-04T10:35:13.289Z,21.16
2016-12-04T10:36:13.015Z,21.19
2016-12-04T10:37:13.647Z,21.19
2016-12-04T10:38:13.384Z,21.35
2016-12-04T10:39:13.409Z,21.25
2016-12-04T10:40:13.134Z,21.19
2016-12-04T10:41:13.462Z,21.25
2016-12-04T10:42:13.195Z,21.24
2016-12-04T10:43:13.211Z,21.21
2016-12-04T10:44:13.265Z,21.42
2016-12-04T10:45:13.270Z,21.35
2016-12-04T10:46:13.301Z,21.29
2016-12-04T10:47:13.611Z,21.24
2016-12-04T10:48:13.972Z,21.32
2016-12-04T10:49:13.680Z,21.24
2016-12-04T10:50:13.717Z,21.35
2016-12-04T10:51:13.426Z,21.31
2016-12-04T10:52:13.771Z,21.32
2016-12-04T10:53:13.783Z,21.32
2016-12-04T10:54:14.140Z,21.25
2016-12-04T10:55:13.532Z,21.28
2016-12-04T10:56:13.557Z,21.24
2016-12-04T10:57:13.586Z,21.22
2016-12-04T10:58:13.938Z,21.21
2016-12-04T10:59:13.947Z,21.34
2016-12-04T11:00:13.680Z,21.28
2016-12-04T11:01:13.710Z,21.25
2016-12-04T11:02:13.731Z,21.24
2016-12-04T11:03:14.075Z,21.24
2016-12-04T11:04:13.779Z,21.21
2016-12-04T11:05:13.812Z,21.34
2016-12-04T11:06:13.852Z,21.24
2016-12-04T11:07:14.163Z,21.31
2016-12-04T11:08:13.894Z,21.21
2016-12-04T11:09:14.222Z,21.25
2016-12-04T11:10:14.264Z,21.24
2016-12-04T11:11:14.276Z,21.28
2016-12-04T11:12:14.325Z,21.25
2016-12-04T11:13:14.651Z,21.31
2016-12-04T11:14:14.366Z,21.28
2016-12-04T11:15:14.087Z,21.21
2016-12-04T11:16:14.419Z,21.29
2016-12-04T11:17:14.438Z,21.34
2016-12-04T11:18:14.173Z,21.28
2016-12-04T11:19:14.167Z,21.37
2016-12-04T11:20:14.624Z,21.34
2016-12-04T11:21:14.539Z,21.32
2016-12-04T11:22:14.893Z,21.31
2016-12-04T11:23:14.307Z,21.4
2016-12-04T11:24:14.334Z,21.35
2016-12-04T11:25:14.391Z,21.35
2016-12-04T11:26:14.400Z,21.34
2016-12-04T11:27:14.720Z,21.42
2016-12-04T11:28:14.737Z,21.31
2016-12-04T11:29:14.469Z,21.31
2016-12-04T11:30:14.802Z,21.31
2016-12-04T11:31:14.522Z,21.37
2016-12-04T11:32:16.036Z,21.34
2016-12-04T11:33:15.760Z,21.35
2016-12-04T11:34:16.139Z,21.38
2016-12-04T11:35:15.814Z,21.37
2016-12-04T11:36:15.983Z,21.4
2016-12-04T11:37:14.890Z,21.46
2016-12-04T11:38:16.124Z,21.44
2016-12-04T11:39:15.643Z,21.49
2016-12-04T11:40:16.220Z,21.38
2016-12-04T11:41:16.164Z,21.5
2016-12-04T11:42:16.213Z,21.46
2016-12-04T11:43:15.457Z,21.47
2016-12-04T11:44:15.489Z,21.46
2016-12-04T11:45:15.210Z,21.43
2016-12-04T11:46:14.939Z,21.43
2016-12-04T11:47:15.568Z,21.46
2016-12-04T11:48:14.992Z,21.46
2016-12-04T11:49:15.025Z,21.43
2016-12-04T11:50:15.354Z,21.4
2016-12-04T11:51:15.083Z,21.44
2016-12-04T11:52:15.111Z,21.34
2016-12-04T11:53:15.440Z,21.34
2016-12-04T11:54:15.462Z,21.4
2016-12-04T11:55:15.566Z,21.4
2016-12-04T11:56:15.216Z,21.34
2016-12-04T11:57:15.260Z,21.4
2016-12-04T11:58:15.276Z,21.37
2016-12-04T11:59:15.923Z,21.35
2016-12-04T12:00:15.334Z,21.38
2016-12-04T12:01:15.349Z,21.37
2016-12-04T12:02:15.678Z,21.29
2016-12-04T12:03:15.399Z,21.4
2016-12-04T12:04:15.744Z,21.43
2016-12-04T12:05:15.765Z,21.42
2016-12-04T12:06:15.492Z,21.4
2016-12-04T12:07:15.838Z,21.37
2016-12-04T12:08:15.851Z,21.4
2016-12-04T12:09:15.876Z,21.4
2016-12-04T12:10:16.210Z,21.42
2016-12-04T12:11:16.233Z,21.38
2016-12-04T12:12:15.986Z,21.42
2016-12-04T12:13:15.673Z,21.43
2016-12-04T12:14:16.012Z,21.43
2016-12-04T12:15:16.348Z,21.4
2016-12-04T12:16:16.065Z,21.42
2016-12-04T12:17:16.102Z,21.42
2016-12-04T12:18:16.130Z,21.46
2016-12-04T12:19:16.147Z,21.4
2016-12-04T12:20:16.184Z,21.38
2016-12-04T12:21:15.902Z,21.4
2016-12-04T12:22:16.241Z,21.35
2016-12-04T12:23:16.249Z,21.46
2016-12-04T12:24:16.286Z,21.37
2016-12-04T12:25:16.015Z,21.35
2016-12-04T12:26:16.036Z,21.32
2016-12-04T12:27:16.367Z,21.34
2016-12-04T12:28:31.321Z,21.37
2016-12-04T12:29:16.738Z,21.37
2016-12-04T12:30:16.428Z,21.37
2016-12-04T12:31:16.755Z,21.35
2016-12-04T12:32:16.494Z,21.32
2016-12-04T12:33:16.226Z,21.4
2016-12-04T12:34:16.557Z,21.38
2016-12-04T12:35:16.586Z,21.37
2016-12-04T12:36:16.608Z,21.35
2016-12-04T12:37:16.339Z,21.35
2016-12-04T12:38:16.668Z,21.38
2016-12-04T12:39:16.698Z,21.43
2016-12-04T12:40:17.034Z,21.38
2016-12-04T12:41:16.754Z,21.38
2016-12-04T12:42:16.783Z,21.38
2016-12-04T12:43:17.118Z,21.31
2016-12-04T12:44:17.136Z,21.35
2016-12-04T12:45:16.861Z,21.34
2016-12-04T12:46:16.590Z,21.38
2016-12-04T12:47:16.612Z,21.29
2016-12-04T12:48:16.942Z,21.4
2016-12-04T12:49:16.969Z,21.4
2016-12-04T12:50:17.007Z,21.44
2016-12-04T12:51:17.024Z,21.42
2016-12-04T12:52:17.365Z,21.43
2016-12-04T12:53:17.382Z,21.46
2016-12-04T12:54:17.423Z,21.47
2016-12-04T12:55:16.848Z,21.49